This is the latest recevied weather packets stored in our database for station/object JE7UPL-13. If no packets are shown the sender has not sent any weather packets the latest 10 day(s).
| Time | Temp. | Humidity | Pressure | Rain* | Wind** | Luminosity | Snow |
|---|---|---|---|---|---|---|---|
| 1777447805 | 13.89° C | 48% | 1011 hPa | 0 mm | - | - | - |
| 1777446904 | 14.44° C | 46% | 1011 hPa | 0 mm | - | - | - |
| 1777446005 | 14.44° C | 43% | 1010.6 hPa | 0 mm | - | - | - |
| 1777444204 | 13.89° C | 52% | 1010.6 hPa | 0 mm | - | - | - |
| 1777443304 | 13.89° C | 57% | 1010.7 hPa | 0 mm | - | - | - |
| 1777442405 | 14.44° C | 55% | 1010.6 hPa | 0 mm | - | - | - |
| 1777441505 | 13.89° C | 52% | 1010.3 hPa | 0 mm | - | - | - |
| 1777440605 | 14.44° C | 52% | 1010.3 hPa | 0 mm | - | - | - |
| 1777439705 | 14.44° C | 51% | 1010.3 hPa | 0 mm | - | - | - |
| 1777438805 | 14.44° C | 53% | 1010.2 hPa | 0 mm | - | - | - |
| 1777437005 | 15.56° C | 40% | 1010.3 hPa | 0 mm | - | - | - |
| 1777436105 | 15° C | 41% | 1010.3 hPa | 0 mm | - | - | - |
| 1777432505 | 14.44° C | 43% | 1010.6 hPa | 0 mm | - | - | - |
| 1777411805 | 8.33° C | 83% | 1010.7 hPa | 0 mm | - | - | - |
| 1777410906 | 8.33° C | 87% | 1010.7 hPa | 0 mm | - | - | - |
| 1777407305 | 6.67° C | 94% | 1010.4 hPa | 0 mm | - | - | - |
| 1777393805 | 6.67° C | 91% | 1009.6 hPa | 0 mm | - | - | - |
| 1777390205 | 6.11° C | 91% | 1009.9 hPa | 0 mm | - | - | - |
| 1777387505 | 6.11° C | 90% | 1009.7 hPa | 0 mm | - | - | - |
| 1777385705 | 6.11° C | 89% | 1009.8 hPa | 0 mm | - | - | - |
| 1777383005 | 6.67° C | 86% | 1009.2 hPa | 0 mm | - | - | - |
| 1777382105 | 7.22° C | 84% | 1009.3 hPa | 0 mm | - | - | - |
| 1777381205 | 7.78° C | 83% | 1009.3 hPa | 0 mm | - | - | - |
| 1777372205 | 10° C | 73% | 1008.9 hPa | 0 mm | - | - | - |
| 1777371305 | 10° C | 71% | 1008.6 hPa | 0 mm | - | - | - |
* Rain latest hour (hover to see other rain measurements)
** Current wind speed in m/s (hover to see current wind gust speed)